sensor_id;sensor_type;location;lat;lon;timestamp;pressure;altitude;pressure_sealevel;temperature;humidity
59757;BME280;45631;51.962;5.974;2022-08-01T00:01:15;101483.91;;;19.38;100.00
59757;BME280;45631;51.962;5.974;2022-08-01T00:03:44;101484.06;;;19.37;100.00
59757;BME280;45631;51.962;5.974;2022-08-01T00:06:12;101490.53;;;19.24;100.00
59757;BME280;45631;51.962;5.974;2022-08-01T00:08:40;101487.56;;;19.28;100.00
59757;BME280;45631;51.962;5.974;2022-08-01T00:11:08;101491.22;;;19.36;100.00
59757;BME280;45631;51.962;5.974;2022-08-01T00:13:37;101490.81;;;19.31;100.00
59757;BME280;45631;51.962;5.974;2022-08-01T00:16:05;101498.38;;;19.26;100.00
59757;BME280;45631;51.962;5.974;2022-08-01T00:18:33;101496.16;;;19.31;100.00
59757;BME280;45631;51.962;5.974;2022-08-01T00:21:03;101489.84;;;19.32;100.00
59757;BME280;45631;51.962;5.974;2022-08-01T00:23:32;101489.84;;;19.32;100.00
59757;BME280;45631;51.962;5.974;2022-08-01T00:26:00;101484.78;;;19.39;100.00
59757;BME280;45631;51.962;5.974;2022-08-01T00:28:28;101490.66;;;19.33;100.00
59757;BME280;45631;51.962;5.974;2022-08-01T00:30:56;101488.00;;;19.23;100.00
59757;BME280;45631;51.962;5.974;2022-08-01T00:33:24;101490.09;;;19.19;100.00
59757;BME280;45631;51.962;5.974;2022-08-01T00:35:52;101493.34;;;19.23;100.00
59757;BME280;45631;51.962;5.974;2022-08-01T00:38:22;101496.56;;;19.17;100.00
59757;BME280;45631;51.962;5.974;2022-08-01T00:40:52;101493.22;;;19.15;100.00
59757;BME280;45631;51.962;5.974;2022-08-01T00:43:20;101488.44;;;19.18;100.00
59757;BME280;45631;51.962;5.974;2022-08-01T00:45:48;101487.31;;;19.11;100.00
59757;BME280;45631;51.962;5.974;2022-08-01T00:48:16;101487.75;;;19.06;100.00
59757;BME280;45631;51.962;5.974;2022-08-01T00:50:45;101489.00;;;19.12;100.00
59757;BME280;45631;51.962;5.974;2022-08-01T00:53:13;101487.88;;;19.15;100.00
59757;BME280;45631;51.962;5.974;2022-08-01T00:55:46;101490.97;;;19.20;100.00
59757;BME280;45631;51.962;5.974;2022-08-01T00:58:15;101487.75;;;19.06;100.00
59757;BME280;45631;51.962;5.974;2022-08-01T01:00:43;101489.00;;;19.02;100.00
59757;BME280;45631;51.962;5.974;2022-08-01T01:03:21;101490.94;;;19.00;100.00
59757;BME280;45631;51.962;5.974;2022-08-01T01:06:19;101488.03;;;19.03;100.00
59757;BME280;45631;51.962;5.974;2022-08-01T01:09:03;101488.44;;;19.08;100.00
59757;BME280;45631;51.962;5.974;2022-08-01T01:11:44;101492.38;;;19.14;100.00
59757;BME280;45631;51.962;5.974;2022-08-01T01:14:23;101488.56;;;19.07;100.00
59757;BME280;45631;51.962;5.974;2022-08-01T01:16:56;101489.28;;;19.09;100.00
59757;BME280;45631;51.962;5.974;2022-08-01T01:19:30;101489.81;;;19.13;100.00
59757;BME280;45631;51.962;5.974;2022-08-01T01:22:25;101491.81;;;19.11;100.00
59757;BME280;45631;51.962;5.974;2022-08-01T01:25:04;101491.09;;;19.08;100.00
59757;BME280;45631;51.962;5.974;2022-08-01T01:27:50;101495.72;;;19.06;100.00
59757;BME280;45631;51.962;5.974;2022-08-01T01:30:21;101490.41;;;19.06;100.00
59757;BME280;45631;51.962;5.974;2022-08-01T01:32:52;101492.09;;;19.07;100.00
59757;BME280;45631;51.962;5.974;2022-08-01T01:35:24;101495.00;;;19.04;100.00
59757;BME280;45631;51.962;5.974;2022-08-01T01:37:57;101499.38;;;19.05;100.00
59757;BME280;45631;51.962;5.974;2022-08-01T01:40:27;101490.53;;;19.05;100.00
59757;BME280;45631;51.962;5.974;2022-08-01T01:42:57;101499.38;;;18.96;100.00
59757;BME280;45631;51.962;5.974;2022-08-01T01:45:28;101488.44;;;18.99;100.00
59757;BME280;45631;51.962;5.974;2022-08-01T01:47:57;101499.94;;;18.99;100.00
59757;BME280;45631;51.962;5.974;2022-08-01T01:50:27;101498.25;;;18.98;100.00
59757;BME280;45631;51.962;5.974;2022-08-01T01:52:56;101500.50;;;18.93;100.00
59757;BME280;45631;51.962;5.974;2022-08-01T01:55:25;101497.53;;;18.96;100.00
59757;BME280;45631;51.962;5.974;2022-08-01T01:57:55;101503.59;;;18.98;100.00
59757;BME280;45631;51.962;5.974;2022-08-01T02:00:26;101494.88;;;18.96;100.00
59757;BME280;45631;51.962;5.974;2022-08-01T02:02:57;101491.53;;;18.94;100.00
59757;BME280;45631;51.962;5.974;2022-08-01T02:05:27;101499.22;;;18.97;100.00
59757;BME280;45631;51.962;5.974;2022-08-01T02:07:56;101487.31;;;18.91;100.00
59757;BME280;45631;51.962;5.974;2022-08-01T02:10:25;101493.31;;;18.94;100.00
59757;BME280;45631;51.962;5.974;2022-08-01T02:12:56;101492.50;;;18.93;100.00
59757;BME280;45631;51.962;5.974;2022-08-01T02:15:27;101491.94;;;18.99;100.00
59757;BME280;45631;51.962;5.974;2022-08-01T02:17:56;101496.13;;;19.02;100.00
59757;BME280;45631;51.962;5.974;2022-08-01T02:20:27;101503.31;;;19.01;100.00
59757;BME280;45631;51.962;5.974;2022-08-01T02:23:00;101503.88;;;18.95;100.00
59757;BME280;45631;51.962;5.974;2022-08-01T02:25:32;101502.03;;;18.96;100.00
59757;BME280;45631;51.962;5.974;2022-08-01T02:28:05;101500.50;;;18.93;100.00
59757;BME280;45631;51.962;5.974;2022-08-01T02:30:39;101497.13;;;18.91;100.00
59757;BME280;45631;51.962;5.974;2022-08-01T02:33:15;101489.13;;;18.91;100.00
59757;BME280;45631;51.962;5.974;2022-08-01T02:35:47;101489.13;;;18.91;100.00
59757;BME280;45631;51.962;5.974;2022-08-01T02:38:40;101489.78;;;18.83;100.00
59757;BME280;45631;51.962;5.974;2022-08-01T02:41:13;101488.38;;;18.79;100.00
59757;BME280;45631;51.962;5.974;2022-08-01T02:43:43;101485.88;;;18.78;100.00
59757;BME280;45631;51.962;5.974;2022-08-01T02:46:23;101492.84;;;18.69;100.00
59757;BME280;45631;51.962;5.974;2022-08-01T02:48:56;101485.81;;;18.58;100.00
59757;BME280;45631;51.962;5.974;2022-08-01T02:51:26;101494.25;;;18.63;100.00
59757;BME280;45631;51.962;5.974;2022-08-01T02:53:56;101500.97;;;18.57;100.00
59757;BME280;45631;51.962;5.974;2022-08-01T02:56:26;101496.47;;;18.58;100.00
59757;BME280;45631;51.962;5.974;2022-08-01T02:59:03;101504.06;;;18.63;100.00
59757;BME280;45631;51.962;5.974;2022-08-01T03:01:35;101507.41;;;18.65;100.00
59757;BME280;45631;51.962;5.974;2022-08-01T03:04:07;101502.81;;;18.67;100.00
59757;BME280;45631;51.962;5.974;2022-08-01T03:06:37;101503.50;;;18.69;100.00
59757;BME280;45631;51.962;5.974;2022-08-01T03:09:07;101497.91;;;18.72;100.00
59757;BME280;45631;51.962;5.974;2022-08-01T03:11:37;101496.38;;;18.69;100.00
59757;BME280;45631;51.962;5.974;2022-08-01T03:14:09;101497.63;;;18.65;100.00
59757;BME280;45631;51.962;5.974;2022-08-01T03:16:42;101495.22;;;18.62;100.00
59757;BME280;45631;51.962;5.974;2022-08-01T03:19:12;101501.09;;;18.56;100.00
59757;BME280;45631;51.962;5.974;2022-08-01T03:21:43;101499.84;;;18.60;100.00
59757;BME280;45631;51.962;5.974;2022-08-01T03:24:12;101501.53;;;18.61;100.00
59757;BME280;45631;51.962;5.974;2022-08-01T03:26:43;101507.84;;;18.60;100.00
59757;BME280;45631;51.962;5.974;2022-08-01T03:29:15;101509.09;;;18.56;100.00
59757;BME280;45631;51.962;5.974;2022-08-01T03:31:46;101500.25;;;18.55;100.00
59757;BME280;45631;51.962;5.974;2022-08-01T03:34:16;101495.34;;;18.51;100.00
59757;BME280;45631;51.962;5.974;2022-08-01T03:36:48;101493.91;;;18.47;100.00
59757;BME280;45631;51.962;5.974;2022-08-01T03:39:18;101498.66;;;18.43;100.00
59757;BME280;45631;51.962;5.974;2022-08-01T03:41:54;101498.13;;;18.39;100.00
59757;BME280;45631;51.962;5.974;2022-08-01T03:44:26;101497.97;;;18.41;100.00
59757;BME280;45631;51.962;5.974;2022-08-01T03:47:00;101495.63;;;18.48;100.00
59757;BME280;45631;51.962;5.974;2022-08-01T03:49:30;101503.03;;;18.54;100.00
59757;BME280;45631;51.962;5.974;2022-08-01T03:52:01;101499.69;;;18.52;100.00
59757;BME280;45631;51.962;5.974;2022-08-01T03:54:34;101501.19;;;18.45;100.00
59757;BME280;45631;51.962;5.974;2022-08-01T03:57:04;101505.72;;;18.54;100.00
59757;BME280;45631;51.962;5.974;2022-08-01T03:59:34;101509.91;;;18.56;100.00
59757;BME280;45631;51.962;5.974;2022-08-01T04:02:06;101507.25;;;18.56;100.00
59757;BME280;45631;51.962;5.974;2022-08-01T04:04:35;101509.63;;;18.50;100.00
59757;BME280;45631;51.962;5.974;2022-08-01T04:07:03;101508.66;;;18.51;100.00
59757;BME280;45631;51.962;5.974;2022-08-01T04:09:33;101507.69;;;18.52;100.00
59757;BME280;45631;51.962;5.974;2022-08-01T04:12:01;101516.63;;;18.51;100.00
59757;BME280;45631;51.962;5.974;2022-08-01T04:14:38;101515.53;;;18.53;100.00
59757;BME280;45631;51.962;5.974;2022-08-01T04:17:07;101511.03;;;18.54;100.00
59757;BME280;45631;51.962;5.974;2022-08-01T04:19:36;101507.69;;;18.52;100.00
59757;BME280;45631;51.962;5.974;2022-08-01T04:22:04;101509.91;;;18.56;100.00
59757;BME280;45631;51.962;5.974;2022-08-01T04:24:34;101503.75;;;18.56;100.00
59757;BME280;45631;51.962;5.974;2022-08-01T04:27:07;101513.44;;;18.57;100.00
59757;BME280;45631;51.962;5.974;2022-08-01T04:29:37;101509.22;;;18.54;100.00
59757;BME280;45631;51.962;5.974;2022-08-01T04:32:09;101506.56;;;18.54;100.00
59757;BME280;45631;51.962;5.974;2022-08-01T04:34:39;101519.16;;;18.52;100.00
59757;BME280;45631;51.962;5.974;2022-08-01T04:37:10;101520.28;;;18.50;100.00
59757;BME280;45631;51.962;5.974;2022-08-01T04:39:39;101518.03;;;18.45;100.00
59757;BME280;45631;51.962;5.974;2022-08-01T04:42:17;101518.03;;;18.45;100.00
59757;BME280;45631;51.962;5.974;2022-08-01T04:44:56;101527.81;;;18.45;100.00
59757;BME280;45631;51.962;5.974;2022-08-01T04:47:27;101534.59;;;18.49;100.00
59757;BME280;45631;51.962;5.974;2022-08-01T04:49:56;101535.72;;;18.56;100.00
59757;BME280;45631;51.962;5.974;2022-08-01T04:52:32;101542.16;;;18.53;100.00
59757;BME280;45631;51.962;5.974;2022-08-01T04:55:01;101540.75;;;18.49;100.00
59757;BME280;45631;51.962;5.974;2022-08-01T04:57:29;101541.56;;;18.50;100.00
59757;BME280;45631;51.962;5.974;2022-08-01T04:59:59;101545.78;;;18.52;100.00
59757;BME280;45631;51.962;5.974;2022-08-01T05:02:30;101550.16;;;18.53;100.00
59757;BME280;45631;51.962;5.974;2022-08-01T05:04:58;101547.03;;;18.48;100.00
59757;BME280;45631;51.962;5.974;2022-08-01T05:07:26;101549.84;;;18.47;100.00
59757;BME280;45631;51.962;5.974;2022-08-01T05:09:54;101550.56;;;18.49;100.00
59757;BME280;45631;51.962;5.974;2022-08-01T05:12:22;101550.56;;;18.49;100.00
59757;BME280;45631;51.962;5.974;2022-08-01T05:14:50;101552.50;;;18.47;100.00
59757;BME280;45631;51.962;5.974;2022-08-01T05:17:18;101560.22;;;18.50;100.00
59757;BME280;45631;51.962;5.974;2022-08-01T05:19:48;101557.16;;;18.54;100.00
59757;BME280;45631;51.962;5.974;2022-08-01T05:22:17;101551.69;;;18.46;100.00
59757;BME280;45631;51.962;5.974;2022-08-01T05:24:45;101553.88;;;18.41;100.00
59757;BME280;45631;51.962;5.974;2022-08-01T05:27:15;101551.53;;;18.48;100.00
59757;BME280;45631;51.962;5.974;2022-08-01T05:29:45;101559.84;;;18.54;100.00
59757;BME280;45631;51.962;5.974;2022-08-01T05:32:13;101558.72;;;18.57;100.00
59757;BME280;45631;51.962;5.974;2022-08-01T05:34:41;101560.00;;;18.63;100.00
59757;BME280;45631;51.962;5.974;2022-08-01T05:37:11;101565.63;;;18.69;100.00
59757;BME280;45631;51.962;5.974;2022-08-01T05:39:39;101562.25;;;18.67;100.00
59757;BME280;45631;51.962;5.974;2022-08-01T05:42:07;101565.34;;;18.72;100.00
59757;BME280;45631;51.962;5.974;2022-08-01T05:44:35;101569.72;;;18.73;100.00
59757;BME280;45631;51.962;5.974;2022-08-01T05:47:03;101566.47;;;18.70;100.00
59757;BME280;45631;51.962;5.974;2022-08-01T05:49:31;101565.50;;;18.71;100.00
59757;BME280;45631;51.962;5.974;2022-08-01T05:51:59;101567.72;;;18.75;100.00
59757;BME280;45631;51.962;5.974;2022-08-01T05:54:30;101564.53;;;18.82;100.00
59757;BME280;45631;51.962;5.974;2022-08-01T05:56:58;101567.06;;;18.83;100.00
59757;BME280;45631;51.962;5.974;2022-08-01T05:59:28;101574.19;;;18.83;100.00
59757;BME280;45631;51.962;5.974;2022-08-01T06:01:56;101569.00;;;18.81;100.00
59757;BME280;45631;51.962;5.974;2022-08-01T06:04:25;101567.63;;;18.87;100.00
59757;BME280;45631;51.962;5.974;2022-08-01T06:06:53;101571.88;;;18.89;100.00
59757;BME280;45631;51.962;5.974;2022-08-01T06:09:21;101569.09;;;18.91;100.00
59757;BME280;45631;51.962;5.974;2022-08-01T06:11:50;101573.69;;;18.89;100.00
59757;BME280;45631;51.962;5.974;2022-08-01T06:14:18;101579.41;;;18.84;100.00
59757;BME280;45631;51.962;5.974;2022-08-01T06:16:46;101573.94;;;18.86;100.00
59757;BME280;45631;51.962;5.974;2022-08-01T06:19:14;101577.09;;;18.91;100.00
59757;BME280;45631;51.962;5.974;2022-08-01T06:21:42;101578.75;;;18.92;100.00
59757;BME280;45631;51.962;5.974;2022-08-01T06:24:11;101582.84;;;19.06;100.00
59757;BME280;45631;51.962;5.974;2022-08-01T06:26:39;101583.97;;;19.03;100.00
59757;BME280;45631;51.962;5.974;2022-08-01T06:29:08;101584.66;;;18.96;100.00
59757;BME280;45631;51.962;5.974;2022-08-01T06:31:38;101596.16;;;19.06;100.00
59757;BME280;45631;51.962;5.974;2022-08-01T06:34:06;101595.75;;;19.11;100.00
59757;BME280;45631;51.962;5.974;2022-08-01T06:36:34;101596.47;;;19.13;100.00
59757;BME280;45631;51.962;5.974;2022-08-01T06:39:03;101595.47;;;19.04;100.00
59757;BME280;45631;51.962;5.974;2022-08-01T06:41:31;101597.56;;;19.00;100.00
59757;BME280;45631;51.962;5.974;2022-08-01T06:43:59;101592.38;;;19.08;100.00
59757;BME280;45631;51.962;5.974;2022-08-01T06:46:30;101598.56;;;19.09;100.00
59757;BME280;45631;51.962;5.974;2022-08-01T06:49:00;101603.47;;;19.14;100.00
59757;BME280;45631;51.962;5.974;2022-08-01T06:51:28;101599.97;;;19.13;100.00
59757;BME280;45631;51.962;5.974;2022-08-01T06:53:56;101612.59;;;19.21;100.00
59757;BME280;45631;51.962;5.974;2022-08-01T06:56:25;101613.03;;;19.26;100.00
59757;BME280;45631;51.962;5.974;2022-08-01T06:58:53;101609.41;;;19.27;100.00
59757;BME280;45631;51.962;5.974;2022-08-01T07:01:22;101610.66;;;19.33;100.00
59757;BME280;45631;51.962;5.974;2022-08-01T07:03:52;101617.84;;;19.32;100.00
59757;BME280;45631;51.962;5.974;2022-08-01T07:06:22;101609.00;;;19.41;100.00
59757;BME280;45631;51.962;5.974;2022-08-01T07:08:50;101608.84;;;19.53;100.00
59757;BME280;45631;51.962;5.974;2022-08-01T07:11:20;101615.44;;;19.58;100.00
59757;BME280;45631;51.962;5.974;2022-08-01T07:13:48;101613.34;;;19.62;100.00
59757;BME280;45631;51.962;5.974;2022-08-01T07:16:16;101611.97;;;19.58;100.00
59757;BME280;45631;51.962;5.974;2022-08-01T07:18:44;101617.00;;;19.61;100.00
59757;BME280;45631;51.962;5.974;2022-08-01T07:21:14;101622.34;;;19.61;100.00
59757;BME280;45631;51.962;5.974;2022-08-01T07:24:02;101623.31;;;19.70;100.00
59757;BME280;45631;51.962;5.974;2022-08-01T07:26:40;101625.00;;;19.71;100.00
59757;BME280;45631;51.962;5.974;2022-08-01T07:29:21;101626.13;;;19.68;100.00
59757;BME280;45631;51.962;5.974;2022-08-01T07:31:49;101628.66;;;19.70;100.00
59757;BME280;45631;51.962;5.974;2022-08-01T07:34:18;101630.03;;;19.74;100.00
59757;BME280;45631;51.962;5.974;2022-08-01T07:36:47;101636.94;;;19.67;100.00
59757;BME280;45631;51.962;5.974;2022-08-01T07:39:15;101633.84;;;19.71;100.00
59757;BME280;45631;51.962;5.974;2022-08-01T07:41:44;101641.44;;;19.76;100.00
59757;BME280;45631;51.962;5.974;2022-08-01T07:44:32;101644.09;;;19.76;100.00
59757;BME280;45631;51.962;5.974;2022-08-01T07:47:00;101641.44;;;19.76;100.00
59757;BME280;45631;51.962;5.974;2022-08-01T07:49:28;101648.19;;;19.80;100.00
59757;BME280;45631;51.962;5.974;2022-08-01T07:52:03;101647.19;;;19.71;100.00
59757;BME280;45631;51.962;5.974;2022-08-01T07:54:31;101649.03;;;19.90;100.00
59757;BME280;45631;51.962;5.974;2022-08-01T07:57:00;101654.94;;;19.94;100.00
59757;BME280;45631;51.962;5.974;2022-08-01T07:59:28;101654.25;;;19.92;100.00
59757;BME280;45631;51.962;5.974;2022-08-01T08:01:57;101658.59;;;20.03;100.00
59757;BME280;45631;51.962;5.974;2022-08-01T08:04:25;101659.97;;;20.17;100.00
59757;BME280;45631;51.962;5.974;2022-08-01T08:06:53;101667.81;;;20.28;100.00
59757;BME280;45631;51.962;5.974;2022-08-01T08:09:23;101668.38;;;20.22;100.00
59757;BME280;45631;51.962;5.974;2022-08-01T08:11:51;101665.16;;;20.18;100.00
59757;BME280;45631;51.962;5.974;2022-08-01T08:14:19;101674.84;;;20.09;100.00
59757;BME280;45631;51.962;5.974;2022-08-01T08:16:58;101670.50;;;19.99;100.00
59757;BME280;45631;51.962;5.974;2022-08-01T08:19:28;101675.44;;;20.03;100.00
59757;BME280;45631;51.962;5.974;2022-08-01T08:22:04;101676.56;;;20.01;100.00
59757;BME280;45631;51.962;5.974;2022-08-01T08:24:34;101677.41;;;20.01;100.00
59757;BME280;45631;51.962;5.974;2022-08-01T08:27:12;101678.53;;;20.08;100.00
59757;BME280;45631;51.962;5.974;2022-08-01T08:29:40;101681.47;;;20.05;100.00
59757;BME280;45631;51.962;5.974;2022-08-01T08:32:09;101685.28;;;20.03;100.00
59757;BME280;45631;51.962;5.974;2022-08-01T08:34:37;101683.31;;;20.05;100.00
59757;BME280;45631;51.962;5.974;2022-08-01T08:37:05;101676.25;;;20.14;100.00
59757;BME280;45631;51.962;5.974;2022-08-01T08:39:36;101680.63;;;20.15;100.00
59757;BME280;45631;51.962;5.974;2022-08-01T08:42:09;101681.88;;;20.10;100.00
59757;BME280;45631;51.962;5.974;2022-08-01T08:44:41;101684.84;;;20.17;100.00
59757;BME280;45631;51.962;5.974;2022-08-01T08:47:14;101687.78;;;20.24;100.00
59757;BME280;45631;51.962;5.974;2022-08-01T08:49:48;101690.56;;;20.32;100.00
59757;BME280;45631;51.962;5.974;2022-08-01T08:52:18;101695.06;;;20.41;100.00
59757;BME280;45631;51.962;5.974;2022-08-01T08:54:49;101695.19;;;20.50;100.00
59757;BME280;45631;51.962;5.974;2022-08-01T08:57:20;101695.28;;;20.58;100.00
59757;BME280;45631;51.962;5.974;2022-08-01T08:59:49;101698.38;;;20.63;100.00
59757;BME280;45631;51.962;5.974;2022-08-01T09:02:19;101698.38;;;20.73;100.00
59757;BME280;45631;51.962;5.974;2022-08-01T09:04:48;101702.59;;;20.75;100.00
59757;BME280;45631;51.962;5.974;2022-08-01T09:07:16;101701.63;;;20.76;100.00
59757;BME280;45631;51.962;5.974;2022-08-01T09:09:44;101697.53;;;20.72;100.00
59757;BME280;45631;51.962;5.974;2022-08-01T09:12:18;101707.69;;;20.69;100.00
59757;BME280;45631;51.962;5.974;2022-08-01T09:14:47;101701.63;;;20.76;100.00
59757;BME280;45631;51.962;5.974;2022-08-01T09:17:17;101707.34;;;20.82;100.00
59757;BME280;45631;51.962;5.974;2022-08-01T09:19:47;101707.94;;;20.66;100.00
59757;BME280;45631;51.962;5.974;2022-08-01T09:22:20;101708.38;;;20.51;100.00
59757;BME280;45631;51.962;5.974;2022-08-01T09:24:58;101710.06;;;20.62;100.00
59757;BME280;45631;51.962;5.974;2022-08-01T09:27:28;101719.59;;;20.65;100.00
59757;BME280;45631;51.962;5.974;2022-08-01T09:30:08;101721.47;;;20.44;100.00
59757;BME280;45631;51.962;5.974;2022-08-01T09:32:52;101718.69;;;20.36;100.00
59757;BME280;45631;51.962;5.974;2022-08-01T09:35:26;101717.41;;;20.40;100.00
59757;BME280;45631;51.962;5.974;2022-08-01T09:38:17;101730.34;;;20.55;100.00
59757;BME280;45631;51.962;5.974;2022-08-01T09:40:48;101720.91;;;20.41;100.00
59757;BME280;45631;51.962;5.974;2022-08-01T09:43:18;101730.59;;;20.52;100.00
59757;BME280;45631;51.962;5.974;2022-08-01T09:45:47;101735.66;;;20.65;100.00
59757;BME280;45631;51.962;5.974;2022-08-01T09:48:19;101730.28;;;20.74;100.00
59757;BME280;45631;51.962;5.974;2022-08-01T09:50:53;101739.84;;;20.77;100.00
59757;BME280;45631;51.962;5.974;2022-08-01T09:53:44;101749.16;;;20.63;100.00
59757;BME280;45631;51.962;5.974;2022-08-01T09:56:20;101750.56;;;20.57;100.00
59757;BME280;45631;51.962;5.974;2022-08-01T09:58:51;101747.03;;;20.57;100.00
59757;BME280;45631;51.962;5.974;2022-08-01T10:01:26;101744.50;;;20.65;100.00
59757;BME280;45631;51.962;5.974;2022-08-01T10:04:08;101747.91;;;20.57;100.00
59757;BME280;45631;51.962;5.974;2022-08-01T10:06:39;101749.59;;;20.49;100.00
59757;BME280;45631;51.962;5.974;2022-08-01T10:09:10;101750.19;;;20.42;100.00
59757;BME280;45631;51.962;5.974;2022-08-01T10:11:41;101751.28;;;20.50;100.00
59757;BME280;45631;51.962;5.974;2022-08-01T10:14:12;101756.78;;;20.48;100.00
59757;BME280;45631;51.962;5.974;2022-08-01T10:16:45;101752.13;;;20.50;100.00
59757;BME280;45631;51.962;5.974;2022-08-01T10:19:23;101761.13;;;20.59;100.00
59757;BME280;45631;51.962;5.974;2022-08-01T10:21:56;101758.28;;;20.60;100.00
59757;BME280;45631;51.962;5.974;2022-08-01T10:24:27;101763.06;;;20.57;100.00
59757;BME280;45631;51.962;5.974;2022-08-01T10:26:59;101760.84;;;20.52;100.00
59757;BME280;45631;51.962;5.974;2022-08-01T10:29:40;101763.38;;;20.54;100.00
59757;BME280;45631;51.962;5.974;2022-08-01T10:32:13;101763.94;;;20.57;100.00
59757;BME280;45631;51.962;5.974;2022-08-01T10:34:41;101763.78;;;20.69;100.00
59757;BME280;45631;51.962;5.974;2022-08-01T10:37:12;101766.03;;;20.73;100.00
59757;BME280;45631;51.962;5.974;2022-08-01T10:39:41;101760.69;;;20.73;100.00
59757;BME280;45631;51.962;5.974;2022-08-01T10:42:11;101764.84;;;20.86;100.00
59757;BME280;45631;51.962;5.974;2022-08-01T10:44:43;101766.41;;;20.88;100.00
59757;BME280;45631;51.962;5.974;2022-08-01T10:47:18;101765.22;;;21.10;100.00
59757;BME280;45631;51.962;5.974;2022-08-01T10:49:57;101767.50;;;21.05;100.00
59757;BME280;45631;51.962;5.974;2022-08-01T10:52:28;101763.63;;;21.18;100.00
59757;BME280;45631;51.962;5.974;2022-08-01T10:55:02;101767.13;;;21.18;100.00
59757;BME280;45631;51.962;5.974;2022-08-01T10:57:42;101763.94;;;21.42;100.00
59757;BME280;45631;51.962;5.974;2022-08-01T11:00:21;101762.66;;;21.47;100.00
59757;BME280;45631;51.962;5.974;2022-08-01T11:03:02;101764.97;;;21.32;97.38
59757;BME280;45631;51.962;5.974;2022-08-01T11:05:32;101761.41;;;21.41;97.76
59757;BME280;45631;51.962;5.974;2022-08-01T11:08:03;101760.03;;;21.37;98.84
59757;BME280;45631;51.962;5.974;2022-08-01T11:10:37;101763.19;;;21.50;99.45
59757;BME280;45631;51.962;5.974;2022-08-01T11:13:06;101765.44;;;21.55;98.56
59757;BME280;45631;51.962;5.974;2022-08-01T11:15:36;101762.53;;;21.66;98.31
59757;BME280;45631;51.962;5.974;2022-08-01T11:18:31;101764.94;;;21.69;94.35
59757;BME280;45631;51.962;5.974;2022-08-01T11:21:04;101761.94;;;21.54;94.01
59757;BME280;45631;51.962;5.974;2022-08-01T11:23:52;101763.03;;;21.80;95.97
59757;BME280;45631;51.962;5.974;2022-08-01T11:26:23;101752.56;;;21.86;94.09
59757;BME280;45631;51.962;5.974;2022-08-01T11:29:14;101756.44;;;22.10;94.14
59757;BME280;45631;51.962;5.974;2022-08-01T11:31:49;101763.03;;;22.16;92.30
59757;BME280;45631;51.962;5.974;2022-08-01T11:34:18;101754.22;;;22.41;93.85
59757;BME280;45631;51.962;5.974;2022-08-01T11:36:47;101761.47;;;22.49;91.40
59757;BME280;45631;51.962;5.974;2022-08-01T11:39:25;101765.59;;;22.61;87.40
59757;BME280;45631;51.962;5.974;2022-08-01T11:41:55;101759.06;;;22.64;85.95
59757;BME280;45631;51.962;5.974;2022-08-01T11:44:48;101764.13;;;22.67;83.67
59757;BME280;45631;51.962;5.974;2022-08-01T11:47:18;101772.03;;;22.69;80.82
59757;BME280;45631;51.962;5.974;2022-08-01T11:50:31;101775.22;;;22.72;81.60
59757;BME280;45631;51.962;5.974;2022-08-01T11:53:01;101772.91;;;22.77;83.12
59757;BME280;45631;51.962;5.974;2022-08-01T11:55:29;101764.47;;;22.99;81.75
59757;BME280;45631;51.962;5.974;2022-08-01T11:58:03;101768.28;;;23.14;79.45
59757;BME280;45631;51.962;5.974;2022-08-01T12:00:32;101763.66;;;23.06;79.19
59757;BME280;45631;51.962;5.974;2022-08-01T12:03:03;101769.84;;;23.25;79.72
59757;BME280;45631;51.962;5.974;2022-08-01T12:05:35;101762.34;;;23.45;78.61
59757;BME280;45631;51.962;5.974;2022-08-01T12:08:09;101760.50;;;23.45;78.88
59757;BME280;45631;51.962;5.974;2022-08-01T12:10:37;101759.53;;;23.46;79.21
59757;BME280;45631;51.962;5.974;2022-08-01T12:13:15;101757.97;;;23.36;77.27
59757;BME280;45631;51.962;5.974;2022-08-01T12:15:45;101753.81;;;23.50;78.78
59757;BME280;45631;51.962;5.974;2022-08-01T12:18:13;101764.56;;;23.50;77.47
59757;BME280;45631;51.962;5.974;2022-08-01T12:20:44;101765.38;;;23.50;75.48
59757;BME280;45631;51.962;5.974;2022-08-01T12:23:23;101759.38;;;23.56;77.73
59757;BME280;45631;51.962;5.974;2022-08-01T12:25:52;101757.91;;;23.78;75.66
59757;BME280;45631;51.962;5.974;2022-08-01T12:28:21;101756.44;;;23.92;73.51
59757;BME280;45631;51.962;5.974;2022-08-01T12:30:50;101763.47;;;23.85;73.76
59757;BME280;45631;51.962;5.974;2022-08-01T12:33:19;101762.94;;;23.82;73.94
59757;BME280;45631;51.962;5.974;2022-08-01T12:35:49;101768.56;;;23.45;72.40
59757;BME280;45631;51.962;5.974;2022-08-01T12:38:19;101775.34;;;23.66;74.08
59757;BME280;45631;51.962;5.974;2022-08-01T12:40:49;101768.94;;;23.59;71.19
59757;BME280;45631;51.962;5.974;2022-08-01T12:43:19;101771.59;;;23.51;68.10
59757;BME280;45631;51.962;5.974;2022-08-01T12:45:56;101771.50;;;23.85;70.25
59757;BME280;45631;51.962;5.974;2022-08-01T12:48:26;101771.34;;;23.87;68.49
59757;BME280;45631;51.962;5.974;2022-08-01T12:50:56;101767.34;;;23.91;68.97
59757;BME280;45631;51.962;5.974;2022-08-01T12:53:28;101764.84;;;23.89;66.45
59757;BME280;45631;51.962;5.974;2022-08-01T12:56:07;101764.59;;;23.66;66.20
59757;BME280;45631;51.962;5.974;2022-08-01T12:58:37;101765.16;;;23.86;67.48
59757;BME280;45631;51.962;5.974;2022-08-01T13:01:06;101761.50;;;24.04;66.20
59757;BME280;45631;51.962;5.974;2022-08-01T13:03:35;101752.75;;;24.02;65.39